WEATHER DATA

YESTERDAY
Time Temp. Dewp. Hum. Wind dir Wind speed Wind gust Bar. 1h Prec. 24h Prec.
00:03 3.7 -0.4 74 29 0.3 0.8 1027.2 0.0000 0.0000
00:13 3.3 -0.6 75 24 0.3 0.6 1027.1 0.0000 0.0000
00:24 3.1 -0.6 76 32 0.3 0.8 1027 0.0000 0.0000
00:36 2.9 -0.8 76 10 0.6 0.8 1026.9 0.0000 0.0000
00:45 2.8 -0.7 77 5 0.3 0.8 1026.9 0.0000 0.0000
00:55 2.6 -0.9 77 5 0.3 0.6 1026.8 0.0000 0.0000
01:06 2.5 -1 77 10 0.3 0.8 1026.7 0.0000 0.0000
01:16 2.3 -1 78 12 0.3 0.8 1026.6 0.0000 0.0000
01:25 2.2 -1.1 78 34 0.6 0.8 1026.4 0.0000 0.0000
01:35 1.9 -1.3 78 28 0.3 0.8 1026.4 0.0000 0.0000
01:46 1.7 -1.5 78 0 0.3 1.4 1026.3 0.0000 0.0000
01:56 1.5 -1.5 79 0 0.3 0.6 1026.2 0.0000 0.0000
02:11 1.2 -1.8 79 12 0.3 0.8 1026.2 0.0000 0.0000
02:21 1 -2 79 5 0.3 0.8 1026.1 0.0000 0.0000
02:31 0.8 -2 80 345 0.3 0.6 1026.1 0.0000 0.0000
02:41 0.6 -2 81 6 0.3 0.6 1026.1 0.0000 0.0000
02:56 0.4 -2.2 81 7 0.3 0.8 1025.9 0.0000 0.0000
03:06 0.3 -2.3 81 0 0.3 0.6 1025.8 0.0000 0.0000
03:16 0.1 -2.4 81 32 0.3 0.8 1025.8 0.0000 0.0000
03:27 0 -2.5 81 29 0.3 0.8 1025.6 0.0000 0.0000
03:37 -0.2 -2.6 82 29 0.3 0.8 1025.6 0.0000 0.0000
03:46 -0.3 -2.7 82 16 0.3 0.8 1025.5 0.0000 0.0000
03:56 -0.4 -2.6 83 26 0.6 0.8 1025.5 0.0000 0.0000
04:07 -0.6 -2.8 83 18 0.3 0.8 1025.5 0.0000 0.0000
04:17 -0.7 -2.8 84 33 0.3 0.8 1025.4 0.0000 0.0000
04:27 -0.8 -2.9 84 8 0.3 0.8 1025.3 0.0000 0.0000
04:37 -0.9 -3 84 19 0.3 0.8 1025.3 0.0000 0.0000
04:52 -0.9 -2.8 85 18 0.3 0.6 1025.1 0.0000 0.0000
05:02 -1 -2.9 85 16 0.3 0.8 1025 0.0000 0.0000
05:27 -1.2 -3.1 85 34 0.6 0.8 1024.8 0.0000 0.0000
05:37 -1.3 -3.1 86 29 0.6 1.4 1024.7 0.0000 0.0000
05:48 -1.4 -3.2 86 30 0.6 0.8 1024.6 0.0000 0.0000
05:58 -1.4 -3.2 86 11 0.3 0.6 1024.6 0.0000 0.0000
06:07 -1.3 -3 87 18 0.3 0.6 1024.6 0.0000 0.0000
06:17 -1.2 -2.9 87 333 0.3 0.6 1024.6 0.0000 0.0000
06:28 -1.1 -2.8 87 0 0.3 0.6 1024.6 0.0000 0.0000
06:38 -1 -2.7 87 21 0.3 0.8 1024.5 0.0000 0.0000
06:58 -0.9 -2.4 88 45 0.6 1.4 1024.4 0.0000 0.0000
07:08 -0.8 -2.3 88 0 0.6 1024.4 0.0000 0.0000
07:18 -0.4 -1.8 89 20 0.3 0.8 1024.3 0.0000 0.0000
07:28 0 -1.3 90 15 0.3 0.6 1024.3 0.0000 0.0000
07:39 0.7 -0.5 91 20 0.3 0.6 1024.2 0.0000 0.0000
07:48 1.3 0 91 53 0.3 0.8 1024.1 0.0000 0.0000
07:58 2.1 0.9 92 41 0.3 1.4 1024.1 0.0000 0.0000
08:09 2.8 1.6 92 69 0.6 1.7 1024 0.0000 0.0000
08:19 3.7 2.7 93 90 0.8 1.9 1023.9 0.0000 0.0000
08:29 5 3.2 88 90 0.8 1.9 1023.8 0.0000 0.0000
08:38 6 3.2 82 90 0.6 1.9 1023.8 0.0000 0.0000
08:49 7.1 3.3 77 62 0.8 1.9 1023.8 0.0000 0.0000
08:59 8.1 3.8 74 90 0.8 1.9 1023.8 0.0000 0.0000
09:09 9.1 4.1 71 59 0.8 2.2 1023.7 0.0000 0.0000
09:24 10.3 3.8 64 90 0.8 2.2 1023.6 0.0000 0.0000
09:34 11 3.8 61 90 0.6 1.9 1023.6 0.0000 0.0000
09:44 11.5 4 60 71 0.8 2.5 1023.6 0.0000 0.0000
09:55 11.9 3.9 58 72 1.4 3.1 1023.6 0.0000 0.0000
10:05 12.1 3.1 54 65 0.8 2.5 1023.5 0.0000 0.0000
10:14 12.3 3.3 54 73 1.4 2.8 1023.5 0.0000 0.0000
10:24 12.7 3.1 52 81 1.4 3.1 1023.4 0.0000 0.0000
10:35 13.3 3.7 52 72 0.8 2.2 1023.3 0.0000 0.0000
10:45 13.7 2.9 48 75 1.4 3.3 1023.3 0.0000 0.0000
10:55 14.1 3 47 84 1.7 2.8 1023.2 0.0000 0.0000
11:05 14.6 2.8 45 65 1.4 2.2 1023 0.0000 0.0000
11:20 15.1 3.9 47 53 1.7 3.1 1022.9 0.0000 0.0000
11:40 16 3.4 43 67 1.7 2.8 1022.8 0.0000 0.0000
11:51 16.4 4.4 45 45 1.4 2.2 1022.7 0.0000 0.0000
12:00 17 4 42 45 1.4 4.2 1022.6 0.0000 0.0000
12:21 17.9 5.8 45 65 1.7 3.3 1022.4 0.0000 0.0000
12:31 17.7 4.6 42 77 1.7 3.9 1022.3 0.0000 0.0000
12:40 18 4.2 40 57 1.4 3.3 1022.1 0.0000 0.0000
13:01 18.5 4.3 39 63 1.7 3.3 1021.9 0.0000 0.0000
13:11 18.8 3.8 37 74 1.7 2.8 1021.8 0.0000 0.0000
13:26 19.4 4.4 37 57 1.4 2.5 1021.6 0.0000 0.0000
13:36 19.6 4.1 36 63 1.7 3.1 1021.5 0.0000 0.0000
13:46 19.8 4.3 36 65 1.7 3.3 1021.5 0.0000 0.0000
13:56 19.6 6 41 68 1.7 3.1 1021.4 0.0000 0.0000
14:07 19.2 5.3 40 81 1.9 3.9 1021.3 0.0000 0.0000
14:16 19.2 6 42 76 1.7 3.3 1021.1 0.0000 0.0000
14:26 19.5 5.6 40 69 1.4 4.2 1021 0.0000 0.0000
14:36 19.5 5.2 39 63 1.9 4.2 1020.9 0.0000 0.0000
14:47 19.6 5.6 40 61 1.7 4.2 1020.8 0.0000 0.0000
14:57 19.4 4.7 38 78 1.9 3.9 1020.6 0.0000 0.0000
15:06 19.5 5.6 40 70 2.5 4.7 1020.5 0.0000 0.0000
15:22 18.8 6 43 78 1.7 3.3 1020.3 0.0000 0.0000
15:32 18.5 6 44 75 1.9 4.4 1020.2 0.0000 0.0000
15:47 18.1 5.3 43 73 1.9 4.2 1020.1 0.0000 0.0000
15:57 17.9 5.8 45 80 2.2 5.3 1020 0.0000 0.0000
16:07 17.9 4.8 42 75 1.7 5 1020 0.0000 0.0000
16:17 17.4 4.7 43 80 2.2 4.7 1019.8 0.0000 0.0000
16:28 17.2 4.5 43 81 1.9 4.4 1019.7 0.0000 0.0000
16:42 17.1 4.4 43 80 2.2 4.7 1019.5 0.0000 0.0000
16:52 16.9 4.3 43 83 2.5 5 1019.4 0.0000 0.0000
17:03 16.6 4 43 90 2.2 4.4 1019.3 0.0000 0.0000
17:13 16.4 3.5 42 78 2.2 6.4 1019.3 0.0000 0.0000
17:23 16.3 3.4 42 82 1.9 5 1019.2 0.0000 0.0000
17:33 16 2.8 41 78 2.2 5.8 1019.1 0.0000 0.0000
17:43 15.8 2.9 42 71 1.9 5 1019 0.0000 0.0000
17:53 15.6 2.4 41 80 2.2 5 1018.9 0.0000 0.0000
18:03 15.4 2.6 42 85 1.7 3.9 1018.8 0.0000 0.0000
18:14 15.3 2.5 42 72 1.7 3.3 1018.8 0.0000 0.0000
18:23 15 2.9 44 75 1.9 5 1018.7 0.0000 0.0000
18:33 14.8 2.7 44 81 1.9 3.9 1018.6 0.0000 0.0000
18:54 14.4 3.2 47 71 1.7 3.3 1018.4 0.0000 0.0000
19:03 14 2.9 47 72 1.7 4.2 1018.4 0.0000 0.0000
19:13 13.9 3.1 48 75 1.7 2.8 1018.4 0.0000 0.0000
19:24 13.8 3.3 49 61 1.4 3.1 1018.3 0.0000 0.0000
19:34 13.6 3.4 50 60 1.4 2.2 1018.3 0.0000 0.0000
19:44 13.2 3.3 51 75 0.6 2.2 1018.4 0.0000 0.0000
20:09 12.3 3 53 77 0.8 1.7 1018.4 0.0000 0.0000
20:19 11.9 2.9 54 58 0.8 2.2 1018.3 0.0000 0.0000
20:29 11.6 2.9 55 56 0.6 1.7 1018.3 0.0000 0.0000
20:39 11.2 2.8 56 59 0.8 2.2 1018.4 0.0000 0.0000
20:49 10.8 2.6 57 90 0.6 1.9 1018.4 0.0000 0.0000
20:59 10.5 2.6 58 51 0.6 1.9 1018.5 0.0000 0.0000
21:10 10.2 2.6 59 51 0.8 2.2 1018.5 0.0000 0.0000
21:20 10 2.4 59 50 0.8 1.9 1018.5 0.0000 0.0000
21:29 9.8 2.2 59 48 0.8 1.9 1018.4 0.0000 0.0000
21:39 9.6 2 59 50 0.8 1.7 1018.3 0.0000 0.0000
22:00 9.2 1.8 60 47 0.6 1.7 1018.3 0.0000 0.0000
22:09 9.1 2 61 51 0.6 1.7 1018.3 0.0000 0.0000
22:20 9.1 2.2 62 53 0.6 2.2 1018.2 0.0000 0.0000
22:30 9.2 2.5 63 42 0.6 1.9 1018.1 0.0000 0.0000
22:40 9.3 2.8 64 64 0.8 1.9 1018 0.0000 0.0000
22:50 9.5 3 64 74 0.6 2.5 1018 0.0000 0.0000
23:00 9.5 3.3 65 56 0.6 2.2 1018 0.0000 0.0000
23:10 9.4 3.4 66 49 0.6 1.9 1018 0.0000 0.0000
23:20 9.3 3.5 67 43 0.8 2.5 1018 0.0000 0.0000
23:31 9.2 3.6 68 55 0.6 1.9 1018 0.0000 0.0000
23:40 9 3.6 69 40 0.6 2.2 1017.9 0.0000 0.0000
23:50 8.9 3.7 70 42 0.6 1.7 1017.8 0.0000 0.0000

DAY STATISTIC

2019-04-21
TEMPERATURE
AVERAGE
9.2
HIGH
19.8
13:46
LOW
-1.4
05:48
PRESSURE
AVERAGE
1022.2
HIGH
1027.2
00:03
LOW
1017.8
23:50
DEWPOINT
AVERAGE
1.7
HIGH
6.0
13:56
LOW
-3.2
05:48
HUMIDITY
AVERAGE
63
HIGH
93
08:19
LOW
36
13:36
WIND SPEED
AVERAGE
1.0
HIGH
2.5
15:06
WIND GUST
AVERAGE
2.3
HIGH
6.4
17:13
WIND DIRECTION
PREVAILING
NE
41.1%
N
20.2
NE
41.1
E
37.2
SE
0.0
S
0.0
SW
0.0
W
0.0
NW
0.8
PRECIPITATION
RAIN HOUR
0.0
RAIN DAY
0.0
TEMPERATURE (°C)
LOW
-1.4
HIGH
19.8
AVERAGE
9.2
PRESSURE (hpa)
LOW
1017.8
HIGH
1027.2
AVERAGE
1022.2
DEVICE